x

Shumagin Islands - 85nm South Of Sand Point, Ak (46075) Wave Buoy

6:50am - Tue 22nd Jul 2014 All times are UTC.

  • Sig Wave height 5.2ft
  • Peak Period 6s
  • Average Period 5s
  • Wind
    18mph, 20mph gusts
  • Sea Temp 55°f
  • Air Temp 54°f
  • Sea Pressure 1020.2mb

More Historic Weather Station data

Upgrade to MSW Pro to gain access to the past 30 days of data for over 8000 Wavebouys and Weather Stations around the globe.

Join Pro

Comparision Forecast

View Surf forecast
   
Tue 07/22 6:50am 5ft 6s 5s 18 20 mph 1020.2mb 55f 54f
5:50am 4.5ft 5s 5s 18 22 mph 1020.3mb 55f 53f
4:50am 4.5ft 5s 5s 18 20 mph 1019.9mb 55f 53f
3:50am 4.5ft 5s 5s 18 20 mph 1019.6mb 55f 53f
2:50am 4.5ft 5s 5s 18 20 mph 1019.8mb 55f 54f
1:50am 3.5ft 4s 4s 18 22 mph 1019.7mb 55f 53f
12:50am 2.5ft 8s 4s 18 22 mph 1019.7mb 55f 54f
Mon 07/21 11:50pm 3ft 12s 5s 16 20 mph 1019.4mb 55f 55f
10:50pm 3ft 8s 6s 13 16 mph 1019.6mb 55f 55f
9:50pm 3ft 8s 6s 9
mph
1019.4mb 55f 55f
8:50pm 3.5ft 8s 6s 11 13 mph 1019.4mb 55f 55f
7:50pm 3.5ft 8s 7s 9 11 mph 1019.6mb 55f 54f
3:50am 4.5ft 10s 6s 13 16 mph 1020.3mb 55f 53f
2:50am 4.5ft 9s 6s 13 18 mph 1020.5mb 55f 53f
1:50am 5ft 10s 6s 16 18 mph 1020.8mb 55f 53f
12:50am 5ft 10s 6s 13 16 mph 1021.1mb 55f 53f
Sun 07/20 11:50pm 4.5ft 6s 5s 16 18 mph 1020.9mb 55f 53f
10:50pm 5ft 14s 5s 16 20 mph 1020.9mb 55f 54f
9:50pm 5ft 6s 5s 13 18 mph 1021.2mb 55f 53f
8:50pm 5.5ft 11s 5s 18 20 mph 1021mb 55f 53f
7:50pm 5.5ft 6s 5s 18 20 mph 1021.2mb 55f 53f
6:50pm 5ft 6s 5s 20 25 mph 1020.9mb 55f 53f
5:50pm 5ft 6s 6s 18 22 mph 1020.6mb 55f 53f
4:50pm 5ft 6s 6s 16 20 mph 1020.5mb 55f 53f
3:50pm 5ft 9s 5s 22 27 mph 1020mb 55f 53f
2:50pm 5.5ft 10s 6s 18 22 mph 1019.8mb 55f 53f
1:50pm 5.5ft 10s 5s 18 25 mph 1019.8mb 55f 53f
12:50pm 5.5ft 5s 5s 18 20 mph 1020.1mb 55f 54f
11:50am 5ft 9s 5s 20 22 mph 1020.2mb 55f 54f
10:50am 5.5ft 10s 5s 22 25 mph 1020mb 55f 54f
9:50am 5.5ft 6s 5s 20 22 mph 1020.1mb 55f 54f
8:50am 5.5ft 10s 5s 20 22 mph 1019.9mb 55f 54f
7:50am 6ft 6s 5s 18 22 mph 1019.6mb 55f 54f
6:50am 5.5ft 6s 5s 18 20 mph 1019.5mb 55f 54f
5:50am 5ft 6s 6s 18 22 mph 1019.2mb 55f 54f
4:50am 5ft 6s 5s 16 20 mph 1019.2mb 55f 55f
3:50am 5ft 6s 5s 18 22 mph 1018.9mb 55f 54f
2:50am 5ft 6s 5s 18 22 mph 1019.2mb 55f 54f
1:50am 4.5ft 10s 5s 16 20 mph 1019.1mb 55f 55f
12:50am 4.5ft 6s 5s 16 18 mph 1019.2mb 55f 55f
Sat 07/19 11:50pm 5ft 6s 5s 16 20 mph 1019.3mb 55f 54f
10:50pm 5.5ft 5s 5s 16 18 mph 1019.3mb 55f 54f
9:50pm 6ft 6s 5s 18 22 mph 1019.3mb 55f 54f
8:50pm 6.5ft 10s 5s 20 27 mph 1019mb 55f 54f
7:50pm 6.5ft 9s 6s 18 22 mph 1018.5mb 55f 54f
6:50pm 6.5ft 10s 6s 18 20 mph 1018.2mb 55f 54f
5:50pm 6ft 11s 6s 16 20 mph 1018mb 55f 54f
4:50pm 6ft 9s 6s 16 18 mph 1017.6mb 55f 54f
3:50pm 5.5ft 11s 6s 13 16 mph 1017.5mb 55f 54f
2:50pm 5.5ft 10s 6s 16 18 mph 1017.2mb 55f 54f
1:50pm 5ft 6s 6s 16 20 mph 1017mb 55f 54f
12:50pm 5.5ft 6s 5s 16 20 mph 1017.1mb 55f 54f
11:50am 6ft 6s 6s 18 22 mph 1017.2mb 55f 54f
10:50am 5.5ft 10s 6s 18 22 mph 1017.3mb 55f 53f
9:50am 6ft 6s 5s 20 22 mph 1017.2mb 55f 53f
8:50am 5ft 9s 5s 18 20 mph 1017.2mb 55f 53f
7:50am 5.5ft 9s 5s 18 22 mph 1017.1mb 55f 53f
6:50am 6ft 8s 6s 18 22 mph 1016.9mb 55f 53f
5:50am 6ft 9s 6s 18 20 mph 1016.9mb 55f 54f
4:50am 6.5ft 10s 6s 16 20 mph 1017mb 55f 53f
3:50am 6ft 10s 6s 20 25 mph 1017mb 54f 54f
2:50am 6.5ft 10s 6s 18 22 mph 1017.1mb 54f 54f
1:50am 6ft 9s 6s 18 20 mph 1017.1mb 54f 54f
12:50am 6ft 9s 6s 18 20 mph 1017.5mb 55f 54f
Fri 07/18 11:50pm 6ft 9s 6s 18 20 mph 1017.8mb 55f 54f
10:50pm 5.5ft 10s 6s 18 20 mph 1017.8mb 54f 53f
9:50pm 6ft 10s 6s 16 20 mph 1017.7mb 54f 53f
8:50pm 5ft 10s 6s 16 18 mph 1017.3mb 54f 53f
7:50pm 6ft 10s 6s 13 16 mph 1017mb 54f 54f
6:50pm 5.5ft 11s 6s 13 18 mph 1016.6mb 54f 54f
5:50pm 6ft 9s 6s 11 13 mph 1016.3mb 54f 54f
4:50pm 6ft 10s 7s 9 11 mph 1016.1mb 54f 54f
3:50pm 6ft 9s 7s 7 9 mph 1015.3mb 54f 54f
2:50pm 6.5ft 9s 6s 9 11 mph 1014.6mb 54f 54f
1:50pm 7ft 10s 7s 9 11 mph 1014.6mb 54f 54f
12:50pm 8ft 10s 7s 9 11 mph 1014.2mb 54f 54f
11:50am 8ft 10s 7s 9 11 mph 1014mb 54f 54f
10:50am 9ft 11s 7s 16 18 mph 1013.6mb 54f 54f
9:50am 8.5ft 11s 6s 11 16 mph 1013.7mb 54f 54f
8:50am 9ft 10s 6s 13 18 mph 1013mb 54f 54f